<?xml version="1.0" encoding="UTF-8" standalone="no" ?>
<gpx xmlns="http://www.topografix.com/GPX/1/1" xmlns:xsi="http://www.w3.org/2001/XMLSchema-instance" xsi:schemaLocation="http://www.topografix.com/GPX/1/1 http://www.topografix.com/GPX/1/1/gpx.xsd" version="1.1" creator="VisuGPX - https://www.visugpx.com">
  <metadata>
    <name>#FONT/ Chemins tranquilles au carrefour d' Acheres</name>
    <desc><![CDATA[Départ du carrefour d'Achêre.]]></desc>
  </metadata>
  <trk>
    <name><![CDATA[Chemins tranquille au carrefour d'Achères-17032017]]></name>
    <extensions>
      <line xmlns="http://www.topografix.com/GPX/gpx_style/0/2">
        <color>0000FF</color>
        <width>4</width>
      </line>
    </extensions>
    <trkseg>
      <trkpt lat="48.38518" lon="2.63084">
        <ele>136</ele>
        <time>2023-06-21T16:33:59Z</time>
      </trkpt>
      <trkpt lat="48.38359" lon="2.63415">
        <ele>135</ele>
        <time>2023-06-21T16:40:01Z</time>
      </trkpt>
      <trkpt lat="48.38324" lon="2.6352">
        <ele>134</ele>
        <time>2023-06-21T16:41:45Z</time>
      </trkpt>
      <trkpt lat="48.38233" lon="2.63582">
        <ele>132</ele>
        <time>2023-06-21T16:43:58Z</time>
      </trkpt>
      <trkpt lat="48.37763" lon="2.63955">
        <ele>133</ele>
        <time>2023-06-21T16:55:47Z</time>
      </trkpt>
      <trkpt lat="48.37774" lon="2.6405">
        <ele>133</ele>
        <time>2023-06-21T16:57:13Z</time>
      </trkpt>
      <trkpt lat="48.37794" lon="2.64112">
        <ele>132</ele>
        <time>2023-06-21T16:58:14Z</time>
      </trkpt>
      <trkpt lat="48.37868" lon="2.64162">
        <ele>129</ele>
        <time>2023-06-21T17:00:02Z</time>
      </trkpt>
      <trkpt lat="48.37913" lon="2.64257">
        <ele>123</ele>
        <time>2023-06-21T17:01:46Z</time>
      </trkpt>
      <trkpt lat="48.37955" lon="2.64355">
        <ele>117</ele>
        <time>2023-06-21T17:03:29Z</time>
      </trkpt>
      <trkpt lat="48.37966" lon="2.64463">
        <ele>111</ele>
        <time>2023-06-21T17:05:06Z</time>
      </trkpt>
      <trkpt lat="48.37946" lon="2.64558">
        <ele>105</ele>
        <time>2023-06-21T17:06:34Z</time>
      </trkpt>
      <trkpt lat="48.37952" lon="2.64745">
        <ele>98</ele>
        <time>2023-06-21T17:09:20Z</time>
      </trkpt>
      <trkpt lat="48.37981" lon="2.64915">
        <ele>93</ele>
        <time>2023-06-21T17:11:56Z</time>
      </trkpt>
      <trkpt lat="48.37979" lon="2.64844">
        <ele>95</ele>
        <time>2023-06-21T17:12:59Z</time>
      </trkpt>
      <trkpt lat="48.37979" lon="2.64766">
        <ele>97</ele>
        <time>2023-06-21T17:14:08Z</time>
      </trkpt>
      <trkpt lat="48.37998" lon="2.6472">
        <ele>99</ele>
        <time>2023-06-21T17:14:56Z</time>
      </trkpt>
      <trkpt lat="48.38046" lon="2.6467">
        <ele>103</ele>
        <time>2023-06-21T17:16:14Z</time>
      </trkpt>
      <trkpt lat="48.38063" lon="2.64588">
        <ele>106</ele>
        <time>2023-06-21T17:17:30Z</time>
      </trkpt>
      <trkpt lat="48.38089" lon="2.64502">
        <ele>107</ele>
        <time>2023-06-21T17:18:54Z</time>
      </trkpt>
      <trkpt lat="48.38112" lon="2.64396">
        <ele>111</ele>
        <time>2023-06-21T17:20:32Z</time>
      </trkpt>
      <trkpt lat="48.38128" lon="2.6423">
        <ele>116</ele>
        <time>2023-06-21T17:23:01Z</time>
      </trkpt>
      <trkpt lat="48.38139" lon="2.64109">
        <ele>116</ele>
        <time>2023-06-21T17:24:49Z</time>
      </trkpt>
      <trkpt lat="48.38155" lon="2.64066">
        <ele>117</ele>
        <time>2023-06-21T17:25:33Z</time>
      </trkpt>
      <trkpt lat="48.38189" lon="2.64084">
        <ele>120</ele>
        <time>2023-06-21T17:26:21Z</time>
      </trkpt>
      <trkpt lat="48.38201" lon="2.64129">
        <ele>122</ele>
        <time>2023-06-21T17:27:04Z</time>
      </trkpt>
      <trkpt lat="48.38194" lon="2.64198">
        <ele>122</ele>
        <time>2023-06-21T17:28:06Z</time>
      </trkpt>
      <trkpt lat="48.38184" lon="2.6427">
        <ele>121</ele>
        <time>2023-06-21T17:29:11Z</time>
      </trkpt>
      <trkpt lat="48.38178" lon="2.64317">
        <ele>119</ele>
        <time>2023-06-21T17:29:54Z</time>
      </trkpt>
      <trkpt lat="48.38192" lon="2.64352">
        <ele>121</ele>
        <time>2023-06-21T17:30:30Z</time>
      </trkpt>
      <trkpt lat="48.38218" lon="2.6432">
        <ele>125</ele>
        <time>2023-06-21T17:31:15Z</time>
      </trkpt>
      <trkpt lat="48.38243" lon="2.64273">
        <ele>129</ele>
        <time>2023-06-21T17:32:08Z</time>
      </trkpt>
      <trkpt lat="48.38276" lon="2.64271">
        <ele>129</ele>
        <time>2023-06-21T17:32:52Z</time>
      </trkpt>
      <trkpt lat="48.38278" lon="2.64323">
        <ele>128</ele>
        <time>2023-06-21T17:33:38Z</time>
      </trkpt>
      <trkpt lat="48.3828" lon="2.64408">
        <ele>126</ele>
        <time>2023-06-21T17:34:54Z</time>
      </trkpt>
      <trkpt lat="48.38271" lon="2.64481">
        <ele>127</ele>
        <time>2023-06-21T17:35:59Z</time>
      </trkpt>
      <trkpt lat="48.38281" lon="2.64548">
        <ele>126</ele>
        <time>2023-06-21T17:37:00Z</time>
      </trkpt>
      <trkpt lat="48.38303" lon="2.6461">
        <ele>124</ele>
        <time>2023-06-21T17:38:03Z</time>
      </trkpt>
      <trkpt lat="48.38295" lon="2.64716">
        <ele>125</ele>
        <time>2023-06-21T17:39:37Z</time>
      </trkpt>
      <trkpt lat="48.38285" lon="2.64812">
        <ele>125</ele>
        <time>2023-06-21T17:41:03Z</time>
      </trkpt>
      <trkpt lat="48.38341" lon="2.64897">
        <ele>125</ele>
        <time>2023-06-21T17:42:49Z</time>
      </trkpt>
      <trkpt lat="48.38322" lon="2.65029">
        <ele>126</ele>
        <time>2023-06-21T17:44:49Z</time>
      </trkpt>
      <trkpt lat="48.38326" lon="2.65106">
        <ele>125</ele>
        <time>2023-06-21T17:45:58Z</time>
      </trkpt>
      <trkpt lat="48.38378" lon="2.65214">
        <ele>121</ele>
        <time>2023-06-21T17:47:56Z</time>
      </trkpt>
      <trkpt lat="48.38341" lon="2.65388">
        <ele>108</ele>
        <time>2023-06-21T17:50:38Z</time>
      </trkpt>
      <trkpt lat="48.38262" lon="2.65788">
        <ele>88</ele>
        <time>2023-06-21T17:56:48Z</time>
      </trkpt>
      <trkpt lat="48.38472" lon="2.65843">
        <ele>99</ele>
        <time>2023-06-21T18:01:32Z</time>
      </trkpt>
      <trkpt lat="48.38487" lon="2.66203">
        <ele>84</ele>
        <time>2023-06-21T18:06:52Z</time>
      </trkpt>
      <trkpt lat="48.3864" lon="2.65987">
        <ele>96</ele>
        <time>2023-06-21T18:11:32Z</time>
      </trkpt>
      <trkpt lat="48.38722" lon="2.65831">
        <ele>96</ele>
        <time>2023-06-21T18:14:28Z</time>
      </trkpt>
      <trkpt lat="48.38721" lon="2.65783">
        <ele>97</ele>
        <time>2023-06-21T18:15:10Z</time>
      </trkpt>
      <trkpt lat="48.38786" lon="2.65759">
        <ele>98</ele>
        <time>2023-06-21T18:16:40Z</time>
      </trkpt>
      <trkpt lat="48.38836" lon="2.65751">
        <ele>101</ele>
        <time>2023-06-21T18:17:47Z</time>
      </trkpt>
      <trkpt lat="48.38843" lon="2.65641">
        <ele>98</ele>
        <time>2023-06-21T18:19:25Z</time>
      </trkpt>
      <trkpt lat="48.38859" lon="2.65544">
        <ele>98</ele>
        <time>2023-06-21T18:20:53Z</time>
      </trkpt>
      <trkpt lat="48.38861" lon="2.65446">
        <ele>100</ele>
        <time>2023-06-21T18:22:20Z</time>
      </trkpt>
      <trkpt lat="48.38855" lon="2.65327">
        <ele>101</ele>
        <time>2023-06-21T18:24:06Z</time>
      </trkpt>
      <trkpt lat="48.38868" lon="2.65207">
        <ele>101</ele>
        <time>2023-06-21T18:25:54Z</time>
      </trkpt>
      <trkpt lat="48.38878" lon="2.65095">
        <ele>103</ele>
        <time>2023-06-21T18:27:34Z</time>
      </trkpt>
      <trkpt lat="48.38879" lon="2.6499">
        <ele>101</ele>
        <time>2023-06-21T18:29:07Z</time>
      </trkpt>
      <trkpt lat="48.38898" lon="2.64898">
        <ele>103</ele>
        <time>2023-06-21T18:30:32Z</time>
      </trkpt>
      <trkpt lat="48.38875" lon="2.64908">
        <ele>101</ele>
        <time>2023-06-21T18:31:04Z</time>
      </trkpt>
      <trkpt lat="48.39015" lon="2.64945">
        <ele>104</ele>
        <time>2023-06-21T18:34:14Z</time>
      </trkpt>
      <trkpt lat="48.39044" lon="2.65042">
        <ele>101</ele>
        <time>2023-06-21T18:35:48Z</time>
      </trkpt>
      <trkpt lat="48.3916" lon="2.65059">
        <ele>87</ele>
        <time>2023-06-21T18:38:24Z</time>
      </trkpt>
      <trkpt lat="48.39173" lon="2.6492">
        <ele>87</ele>
        <time>2023-06-21T18:40:28Z</time>
      </trkpt>
      <trkpt lat="48.39189" lon="2.64821">
        <ele>86</ele>
        <time>2023-06-21T18:41:58Z</time>
      </trkpt>
      <trkpt lat="48.39206" lon="2.64699">
        <ele>89</ele>
        <time>2023-06-21T18:43:49Z</time>
      </trkpt>
      <trkpt lat="48.39229" lon="2.64536">
        <ele>91</ele>
        <time>2023-06-21T18:46:17Z</time>
      </trkpt>
      <trkpt lat="48.39251" lon="2.64386">
        <ele>93</ele>
        <time>2023-06-21T18:48:33Z</time>
      </trkpt>
      <trkpt lat="48.39263" lon="2.64246">
        <ele>97</ele>
        <time>2023-06-21T18:50:38Z</time>
      </trkpt>
      <trkpt lat="48.39265" lon="2.64168">
        <ele>97</ele>
        <time>2023-06-21T18:51:47Z</time>
      </trkpt>
      <trkpt lat="48.39205" lon="2.64176">
        <ele>107</ele>
        <time>2023-06-21T18:53:07Z</time>
      </trkpt>
      <trkpt lat="48.39148" lon="2.64173">
        <ele>118</ele>
        <time>2023-06-21T18:54:23Z</time>
      </trkpt>
      <trkpt lat="48.3912" lon="2.64101">
        <ele>122</ele>
        <time>2023-06-21T18:55:37Z</time>
      </trkpt>
      <trkpt lat="48.39066" lon="2.64077">
        <ele>123</ele>
        <time>2023-06-21T18:56:52Z</time>
      </trkpt>
      <trkpt lat="48.3899" lon="2.64073">
        <ele>115</ele>
        <time>2023-06-21T18:58:34Z</time>
      </trkpt>
      <trkpt lat="48.39018" lon="2.63753">
        <ele>128</ele>
        <time>2023-06-21T19:03:20Z</time>
      </trkpt>
      <trkpt lat="48.38897" lon="2.63759">
        <ele>132</ele>
        <time>2023-06-21T19:06:02Z</time>
      </trkpt>
      <trkpt lat="48.38821" lon="2.63743">
        <ele>130</ele>
        <time>2023-06-21T19:07:44Z</time>
      </trkpt>
      <trkpt lat="48.38733" lon="2.63728">
        <ele>127</ele>
        <time>2023-06-21T19:09:42Z</time>
      </trkpt>
      <trkpt lat="48.38696" lon="2.63865">
        <ele>123</ele>
        <time>2023-06-21T19:11:53Z</time>
      </trkpt>
      <trkpt lat="48.38576" lon="2.63702">
        <ele>132</ele>
        <time>2023-06-21T19:15:29Z</time>
      </trkpt>
      <trkpt lat="48.38548" lon="2.63117">
        <ele>137</ele>
        <time>2023-06-21T19:24:09Z</time>
      </trkpt>
    </trkseg>
  </trk>
</gpx>